sensor_id;sensor_type;location;lat;lon;timestamp;pressure;altitude;pressure_sealevel;temperature;humidity
32251;BME280;41295;48.518;9.206;2022-10-16T00:01:06;97082.50;;;16.05;80.71
32251;BME280;41295;48.518;9.206;2022-10-16T00:03:09;97089.53;;;16.05;80.55
32251;BME280;41295;48.518;9.206;2022-10-16T00:05:12;97086.91;;;16.05;80.51
32251;BME280;41295;48.518;9.206;2022-10-16T00:07:14;97081.75;;;16.03;80.48
32251;BME280;41295;48.518;9.206;2022-10-16T00:09:17;97075.66;;;16.03;80.34
32251;BME280;41295;48.518;9.206;2022-10-16T00:11:23;97077.44;;;16.02;80.40
32251;BME280;41295;48.518;9.206;2022-10-16T00:13:26;97073.09;;;16.01;80.33
32251;BME280;41295;48.518;9.206;2022-10-16T00:15:28;97081.09;;;15.99;80.49
32251;BME280;41295;48.518;9.206;2022-10-16T00:17:31;97075.91;;;15.98;80.56
32251;BME280;41295;48.518;9.206;2022-10-16T00:19:34;97077.78;;;15.96;80.58
32251;BME280;41295;48.518;9.206;2022-10-16T00:21:37;97078.72;;;15.95;80.66
32251;BME280;41295;48.518;9.206;2022-10-16T00:23:39;97079.84;;;15.91;80.45
32251;BME280;41295;48.518;9.206;2022-10-16T00:25:42;97083.44;;;15.90;80.55
32251;BME280;41295;48.518;9.206;2022-10-16T00:27:46;97098.44;;;15.87;80.87
32251;BME280;41295;48.518;9.206;2022-10-16T00:29:49;97097.50;;;15.88;79.85
32251;BME280;41295;48.518;9.206;2022-10-16T00:31:52;97101.09;;;15.87;79.80
32251;BME280;41295;48.518;9.206;2022-10-16T00:33:55;97092.44;;;15.85;79.84
32251;BME280;41295;48.518;9.206;2022-10-16T00:35:58;97095.94;;;15.86;80.05
32251;BME280;41295;48.518;9.206;2022-10-16T00:38:01;97098.75;;;15.83;79.93
32251;BME280;41295;48.518;9.206;2022-10-16T00:40:04;97088.31;;;15.81;80.22
32251;BME280;41295;48.518;9.206;2022-10-16T00:42:09;97089.25;;;15.80;80.45
32251;BME280;41295;48.518;9.206;2022-10-16T00:44:44;97095.63;;;15.76;80.17
32251;BME280;41295;48.518;9.206;2022-10-16T00:46:47;97093.09;;;15.74;80.38
32251;BME280;41295;48.518;9.206;2022-10-16T00:48:53;97093.19;;;15.73;80.31
32251;BME280;41295;48.518;9.206;2022-10-16T00:50:58;97094.16;;;15.72;80.38
32251;BME280;41295;48.518;9.206;2022-10-16T00:53:01;97095.06;;;15.71;80.19
32251;BME280;41295;48.518;9.206;2022-10-16T00:55:06;97105.59;;;15.71;80.22
32251;BME280;41295;48.518;9.206;2022-10-16T00:57:09;97097.81;;;15.69;80.30
32251;BME280;41295;48.518;9.206;2022-10-16T00:59:15;97099.50;;;15.70;80.26
32251;BME280;41295;48.518;9.206;2022-10-16T01:01:19;97090.88;;;15.68;80.44
32251;BME280;41295;48.518;9.206;2022-10-16T01:03:26;97095.38;;;15.66;80.45
32251;BME280;41295;48.518;9.206;2022-10-16T01:05:33;97097.16;;;15.66;80.50
32251;BME280;41295;48.518;9.206;2022-10-16T01:07:47;97100.72;;;15.65;80.43
32251;BME280;41295;48.518;9.206;2022-10-16T01:10:06;97101.56;;;15.65;80.66
32251;BME280;41295;48.518;9.206;2022-10-16T01:12:13;97098.09;;;15.65;80.51
32251;BME280;41295;48.518;9.206;2022-10-16T01:14:22;97111.13;;;15.66;80.26
32251;BME280;41295;48.518;9.206;2022-10-16T01:16:35;97108.50;;;15.66;80.48
32251;BME280;41295;48.518;9.206;2022-10-16T01:18:44;97104.09;;;15.67;80.29
32251;BME280;41295;48.518;9.206;2022-10-16T01:20:50;97104.94;;;15.67;80.47
32251;BME280;41295;48.518;9.206;2022-10-16T01:23:02;97112.00;;;15.67;80.26
32251;BME280;41295;48.518;9.206;2022-10-16T01:25:12;97098.84;;;15.67;80.23
32251;BME280;41295;48.518;9.206;2022-10-16T01:27:22;97111.13;;;15.66;80.06
32251;BME280;41295;48.518;9.206;2022-10-16T01:29:31;97102.41;;;15.66;80.27
32251;BME280;41295;48.518;9.206;2022-10-16T01:31:39;97107.66;;;15.66;80.31
32251;BME280;41295;48.518;9.206;2022-10-16T01:33:45;97105.97;;;15.65;80.62
32251;BME280;41295;48.518;9.206;2022-10-16T01:35:53;97099.88;;;15.64;80.87
32251;BME280;41295;48.518;9.206;2022-10-16T01:38:00;97092.09;;;15.62;80.87
32251;BME280;41295;48.518;9.206;2022-10-16T01:40:07;97103.53;;;15.61;81.11
32251;BME280;41295;48.518;9.206;2022-10-16T01:42:15;97103.63;;;15.60;81.08
32251;BME280;41295;48.518;9.206;2022-10-16T01:44:23;97109.81;;;15.59;81.19
32251;BME280;41295;48.518;9.206;2022-10-16T01:46:28;97109.91;;;15.57;81.09
32251;BME280;41295;48.518;9.206;2022-10-16T01:48:34;97104.75;;;15.56;81.16
32251;BME280;41295;48.518;9.206;2022-10-16T01:50:40;97096.78;;;15.57;81.46
32251;BME280;41295;48.518;9.206;2022-10-16T01:52:48;97096.88;;;15.56;81.26
32251;BME280;41295;48.518;9.206;2022-10-16T01:54:54;97102.13;;;15.56;81.62
32251;BME280;41295;48.518;9.206;2022-10-16T01:56:58;97098.66;;;15.55;81.28
32251;BME280;41295;48.518;9.206;2022-10-16T01:59:04;97101.38;;;15.54;81.23
32251;BME280;41295;48.518;9.206;2022-10-16T02:01:10;97104.84;;;15.54;81.93
32251;BME280;41295;48.518;9.206;2022-10-16T02:03:16;97098.00;;;15.51;81.78
32251;BME280;41295;48.518;9.206;2022-10-16T02:05:24;97107.59;;;15.53;82.17
32251;BME280;41295;48.518;9.206;2022-10-16T02:07:28;97101.47;;;15.52;82.44
32251;BME280;41295;48.518;9.206;2022-10-16T02:09:32;97098.00;;;15.51;82.28
32251;BME280;41295;48.518;9.206;2022-10-16T02:11:35;97101.66;;;15.49;82.21
32251;BME280;41295;48.518;9.206;2022-10-16T02:13:40;97100.81;;;15.48;82.34
32251;BME280;41295;48.518;9.206;2022-10-16T02:15:46;97097.44;;;15.46;82.49
32251;BME280;41295;48.518;9.206;2022-10-16T02:17:50;97100.81;;;15.48;82.13
32251;BME280;41295;48.518;9.206;2022-10-16T02:19:54;97094.81;;;15.46;82.15
32251;BME280;41295;48.518;9.206;2022-10-16T02:25:26;97093.38;;;15.41;82.73
32251;BME280;41295;48.518;9.206;2022-10-16T02:27:34;97088.22;;;15.39;82.58
32251;BME280;41295;48.518;9.206;2022-10-16T02:29:43;97092.63;;;15.38;82.60
32251;BME280;41295;48.518;9.206;2022-10-16T02:31:59;97094.34;;;15.39;82.85
32251;BME280;41295;48.518;9.206;2022-10-16T02:34:06;97103.88;;;15.41;83.14
32251;BME280;41295;48.518;9.206;2022-10-16T02:36:09;97102.88;;;15.43;83.11
32251;BME280;41295;48.518;9.206;2022-10-16T02:38:12;97103.78;;;15.42;83.42
32251;BME280;41295;48.518;9.206;2022-10-16T02:40:17;97106.41;;;15.42;83.39
32251;BME280;41295;48.518;9.206;2022-10-16T02:42:29;97098.53;;;15.42;83.38
32251;BME280;41295;48.518;9.206;2022-10-16T02:44:35;97099.59;;;15.39;83.12
32251;BME280;41295;48.518;9.206;2022-10-16T02:46:37;97104.84;;;15.39;83.57
32251;BME280;41295;48.518;9.206;2022-10-16T02:48:40;97103.88;;;15.41;83.38
32251;BME280;41295;48.518;9.206;2022-10-16T02:50:44;97104.09;;;15.37;83.36
32251;BME280;41295;48.518;9.206;2022-10-16T02:52:46;97101.34;;;15.39;83.80
32251;BME280;41295;48.518;9.206;2022-10-16T02:54:49;97104.94;;;15.38;83.85
32251;BME280;41295;48.518;9.206;2022-10-16T02:56:52;97100.69;;;15.35;83.85
32251;BME280;41295;48.518;9.206;2022-10-16T02:58:54;97097.22;;;15.35;83.95
32251;BME280;41295;48.518;9.206;2022-10-16T03:00:57;97103.41;;;15.34;84.06
32251;BME280;41295;48.518;9.206;2022-10-16T03:03:00;97093.88;;;15.33;84.13
32251;BME280;41295;48.518;9.206;2022-10-16T03:05:02;97093.09;;;15.31;84.17
32251;BME280;41295;48.518;9.206;2022-10-16T03:07:07;97094.88;;;15.30;84.23
32251;BME280;41295;48.518;9.206;2022-10-16T03:09:09;97093.09;;;15.31;84.32
32251;BME280;41295;48.518;9.206;2022-10-16T03:11:12;97092.25;;;15.30;84.49
32251;BME280;41295;48.518;9.206;2022-10-16T03:13:15;97092.44;;;15.27;84.27
32251;BME280;41295;48.518;9.206;2022-10-16T03:15:17;97095.91;;;15.27;84.28
32251;BME280;41295;48.518;9.206;2022-10-16T03:17:20;97094.13;;;15.28;84.37
32251;BME280;41295;48.518;9.206;2022-10-16T03:19:22;97094.22;;;15.26;84.23
32251;BME280;41295;48.518;9.206;2022-10-16T03:21:25;97107.44;;;15.25;84.17
32251;BME280;41295;48.518;9.206;2022-10-16T03:23:29;97104.81;;;15.25;84.21
32251;BME280;41295;48.518;9.206;2022-10-16T03:25:32;97097.88;;;15.24;84.14
32251;BME280;41295;48.518;9.206;2022-10-16T03:27:34;97101.44;;;15.23;84.15
32251;BME280;41295;48.518;9.206;2022-10-16T03:29:37;97099.56;;;15.25;83.93
32251;BME280;41295;48.518;9.206;2022-10-16T03:31:40;97098.72;;;15.24;83.78
32251;BME280;41295;48.518;9.206;2022-10-16T03:33:42;97101.44;;;15.23;83.76
32251;BME280;41295;48.518;9.206;2022-10-16T03:35:51;97110.25;;;15.22;83.94
32251;BME280;41295;48.518;9.206;2022-10-16T03:37:54;97110.34;;;15.20;84.17
32251;BME280;41295;48.518;9.206;2022-10-16T03:39:59;97104.44;;;15.17;84.33
32251;BME280;41295;48.518;9.206;2022-10-16T03:42:02;97111.47;;;15.16;84.63
32251;BME280;41295;48.518;9.206;2022-10-16T03:44:05;97107.16;;;15.15;84.69
32251;BME280;41295;48.518;9.206;2022-10-16T03:46:07;97106.31;;;15.14;84.87
32251;BME280;41295;48.518;9.206;2022-10-16T03:48:10;97105.25;;;15.17;84.73
32251;BME280;41295;48.518;9.206;2022-10-16T03:50:14;97105.34;;;15.15;84.84
32251;BME280;41295;48.518;9.206;2022-10-16T03:52:17;97108.94;;;15.14;84.88
32251;BME280;41295;48.518;9.206;2022-10-16T03:54:19;97103.88;;;15.11;84.29
32251;BME280;41295;48.518;9.206;2022-10-16T03:56:24;97107.22;;;15.13;84.60
32251;BME280;41295;48.518;9.206;2022-10-16T03:58:27;97117.06;;;15.10;84.50
32251;BME280;41295;48.518;9.206;2022-10-16T04:00:29;97124.88;;;15.11;84.97
32251;BME280;41295;48.518;9.206;2022-10-16T04:02:32;97120.53;;;15.10;84.72
32251;BME280;41295;48.518;9.206;2022-10-16T04:04:35;97123.25;;;15.09;84.63
32251;BME280;41295;48.518;9.206;2022-10-16T04:06:38;97121.31;;;15.12;84.53
32251;BME280;41295;48.518;9.206;2022-10-16T04:08:42;97116.91;;;15.13;84.30
32251;BME280;41295;48.518;9.206;2022-10-16T04:10:45;97116.03;;;15.12;84.30
32251;BME280;41295;48.518;9.206;2022-10-16T04:12:49;97115.59;;;15.20;82.92
32251;BME280;41295;48.518;9.206;2022-10-16T04:14:52;97126.28;;;15.17;83.48
32251;BME280;41295;48.518;9.206;2022-10-16T04:16:54;97123.66;;;15.17;83.28
32251;BME280;41295;48.518;9.206;2022-10-16T04:18:57;97130.69;;;15.17;83.68
32251;BME280;41295;48.518;9.206;2022-10-16T04:21:02;97119.25;;;15.18;82.74
32251;BME280;41295;48.518;9.206;2022-10-16T04:23:05;97122.91;;;15.15;83.21
32251;BME280;41295;48.518;9.206;2022-10-16T04:25:08;97127.41;;;15.13;83.68
32251;BME280;41295;48.518;9.206;2022-10-16T04:27:11;97119.69;;;15.10;83.83
32251;BME280;41295;48.518;9.206;2022-10-16T04:29:15;97125.88;;;15.09;84.31
32251;BME280;41295;48.518;9.206;2022-10-16T04:31:17;97123.34;;;15.07;84.28
32251;BME280;41295;48.518;9.206;2022-10-16T04:33:20;97122.50;;;15.07;84.50
32251;BME280;41295;48.518;9.206;2022-10-16T04:35:23;97121.56;;;15.08;84.43
32251;BME280;41295;48.518;9.206;2022-10-16T04:37:26;97122.41;;;15.08;84.68
32251;BME280;41295;48.518;9.206;2022-10-16T04:39:29;97124.31;;;15.06;84.58
32251;BME280;41295;48.518;9.206;2022-10-16T04:41:32;97116.41;;;15.06;84.58
32251;BME280;41295;48.518;9.206;2022-10-16T04:43:34;97117.25;;;15.07;84.59
32251;BME280;41295;48.518;9.206;2022-10-16T04:45:38;97118.19;;;15.06;84.87
32251;BME280;41295;48.518;9.206;2022-10-16T04:47:41;97114.91;;;15.02;84.56
32251;BME280;41295;48.518;9.206;2022-10-16T04:49:44;97120.16;;;15.02;85.03
32251;BME280;41295;48.518;9.206;2022-10-16T04:51:46;97127.84;;;15.05;84.63
32251;BME280;41295;48.518;9.206;2022-10-16T04:53:49;97128.13;;;15.00;84.44
32251;BME280;41295;48.518;9.206;2022-10-16T04:55:51;97123.69;;;15.01;84.76
32251;BME280;41295;48.518;9.206;2022-10-16T04:57:54;97122.97;;;14.99;84.83
32251;BME280;41295;48.518;9.206;2022-10-16T04:59:56;97128.94;;;15.01;84.93
32251;BME280;41295;48.518;9.206;2022-10-16T05:02:00;97132.50;;;15.00;85.21
32251;BME280;41295;48.518;9.206;2022-10-16T05:04:03;97136.00;;;15.00;85.45
32251;BME280;41295;48.518;9.206;2022-10-16T05:06:06;97141.41;;;14.97;85.06
32251;BME280;41295;48.518;9.206;2022-10-16T05:08:08;97136.16;;;14.97;85.24
32251;BME280;41295;48.518;9.206;2022-10-16T05:10:11;97141.50;;;14.96;85.54
32251;BME280;41295;48.518;9.206;2022-10-16T05:12:14;97146.94;;;14.93;85.22
32251;BME280;41295;48.518;9.206;2022-10-16T05:14:17;97149.56;;;14.93;85.65
32251;BME280;41295;48.518;9.206;2022-10-16T05:16:19;97152.38;;;14.89;85.42
32251;BME280;41295;48.518;9.206;2022-10-16T05:18:23;97159.38;;;14.89;85.57
32251;BME280;41295;48.518;9.206;2022-10-16T05:20:26;97163.78;;;14.88;85.61
32251;BME280;41295;48.518;9.206;2022-10-16T05:22:29;97155.09;;;14.88;85.79
32251;BME280;41295;48.518;9.206;2022-10-16T05:24:31;97154.22;;;14.87;85.64
32251;BME280;41295;48.518;9.206;2022-10-16T05:26:34;97157.81;;;14.86;85.27
32251;BME280;41295;48.518;9.206;2022-10-16T05:28:37;97151.59;;;14.87;85.35
32251;BME280;41295;48.518;9.206;2022-10-16T05:30:39;97154.22;;;14.87;84.45
32251;BME280;41295;48.518;9.206;2022-10-16T05:32:46;97157.81;;;14.86;84.91
32251;BME280;41295;48.518;9.206;2022-10-16T05:34:50;97161.25;;;14.87;84.98
32251;BME280;41295;48.518;9.206;2022-10-16T05:36:53;97164.06;;;14.84;84.95
32251;BME280;41295;48.518;9.206;2022-10-16T05:38:55;97157.13;;;14.83;84.72
32251;BME280;41295;48.518;9.206;2022-10-16T05:40:58;97157.94;;;14.83;84.97
32251;BME280;41295;48.518;9.206;2022-10-16T05:43:01;97160.56;;;14.83;84.84
32251;BME280;41295;48.518;9.206;2022-10-16T05:45:04;97154.50;;;14.83;84.69
32251;BME280;41295;48.518;9.206;2022-10-16T05:47:07;97167.63;;;14.83;84.87
32251;BME280;41295;48.518;9.206;2022-10-16T05:49:09;97166.06;;;14.78;83.72
32251;BME280;41295;48.518;9.206;2022-10-16T05:51:14;97161.66;;;14.79;83.93
32251;BME280;41295;48.518;9.206;2022-10-16T05:53:17;97171.41;;;14.77;84.33
32251;BME280;41295;48.518;9.206;2022-10-16T05:55:26;97179.28;;;14.77;84.75
32251;BME280;41295;48.518;9.206;2022-10-16T05:57:29;97174.38;;;14.87;83.93
32251;BME280;41295;48.518;9.206;2022-10-16T05:59:32;97175.63;;;14.79;84.21
32251;BME280;41295;48.518;9.206;2022-10-16T06:01:35;97174.88;;;14.77;84.52
32251;BME280;41295;48.518;9.206;2022-10-16T06:03:37;97174.88;;;14.77;84.40
32251;BME280;41295;48.518;9.206;2022-10-16T06:05:40;97179.28;;;14.77;84.93
32251;BME280;41295;48.518;9.206;2022-10-16T06:07:45;97180.97;;;14.78;84.90
32251;BME280;41295;48.518;9.206;2022-10-16T06:09:48;97190.63;;;14.77;84.91
32251;BME280;41295;48.518;9.206;2022-10-16T06:11:51;97188.00;;;14.77;85.19
32251;BME280;41295;48.518;9.206;2022-10-16T06:13:54;97197.56;;;14.78;85.02
32251;BME280;41295;48.518;9.206;2022-10-16T06:15:59;97194.06;;;14.78;85.10
32251;BME280;41295;48.518;9.206;2022-10-16T06:18:05;97189.78;;;14.77;84.81
32251;BME280;41295;48.518;9.206;2022-10-16T06:20:08;97198.41;;;14.79;85.17
32251;BME280;41295;48.518;9.206;2022-10-16T06:22:11;97199.25;;;14.79;85.16
32251;BME280;41295;48.518;9.206;2022-10-16T06:24:15;97200.28;;;14.77;85.03
32251;BME280;41295;48.518;9.206;2022-10-16T06:26:19;97198.50;;;14.77;85.13
32251;BME280;41295;48.518;9.206;2022-10-16T06:28:22;97202.91;;;14.77;85.26
32251;BME280;41295;48.518;9.206;2022-10-16T06:30:25;97211.53;;;14.79;85.40
32251;BME280;41295;48.518;9.206;2022-10-16T06:32:30;97216.78;;;14.79;85.39
32251;BME280;41295;48.518;9.206;2022-10-16T06:34:32;97220.31;;;14.78;84.93
32251;BME280;41295;48.518;9.206;2022-10-16T06:36:36;97213.31;;;14.78;85.45
32251;BME280;41295;48.518;9.206;2022-10-16T06:38:38;97210.59;;;14.80;85.97
32251;BME280;41295;48.518;9.206;2022-10-16T06:40:42;97219.25;;;14.82;85.99
32251;BME280;41295;48.518;9.206;2022-10-16T06:42:45;97216.56;;;14.84;85.91
32251;BME280;41295;48.518;9.206;2022-10-16T06:44:47;97219.09;;;14.85;85.83
32251;BME280;41295;48.518;9.206;2022-10-16T06:46:50;97230.25;;;14.89;86.06
32251;BME280;41295;48.518;9.206;2022-10-16T06:48:53;97224.84;;;14.92;86.21
32251;BME280;41295;48.518;9.206;2022-10-16T06:50:57;97229.75;;;14.98;86.56
32251;BME280;41295;48.518;9.206;2022-10-16T06:53:00;97244.31;;;15.04;86.54
32251;BME280;41295;48.518;9.206;2022-10-16T06:55:03;97231.00;;;15.07;86.23
32251;BME280;41295;48.518;9.206;2022-10-16T06:57:09;97226.53;;;15.09;86.47
32251;BME280;41295;48.518;9.206;2022-10-16T06:59:12;97228.03;;;15.13;86.75
32251;BME280;41295;48.518;9.206;2022-10-16T07:01:16;97231.41;;;15.15;87.00
32251;BME280;41295;48.518;9.206;2022-10-16T07:03:19;97233.03;;;15.18;87.10
32251;BME280;41295;48.518;9.206;2022-10-16T07:05:22;97235.56;;;15.20;87.32
32251;BME280;41295;48.518;9.206;2022-10-16T07:07:24;97250.22;;;15.24;87.61
32251;BME280;41295;48.518;9.206;2022-10-16T07:09:27;97259.78;;;15.25;87.39
32251;BME280;41295;48.518;9.206;2022-10-16T07:11:36;97259.59;;;15.28;87.19
32251;BME280;41295;48.518;9.206;2022-10-16T07:13:42;97262.06;;;15.31;87.46
32251;BME280;41295;48.518;9.206;2022-10-16T07:15:44;97265.34;;;15.35;87.20
32251;BME280;41295;48.518;9.206;2022-10-16T07:17:47;97255.59;;;15.37;86.81
32251;BME280;41295;48.518;9.206;2022-10-16T07:19:49;97261.53;;;15.41;86.86
32251;BME280;41295;48.518;9.206;2022-10-16T07:21:54;97263.72;;;15.48;86.72
32251;BME280;41295;48.518;9.206;2022-10-16T07:23:59;97271.94;;;15.42;85.58
32251;BME280;41295;48.518;9.206;2022-10-16T07:26:03;97272.69;;;15.44;85.50
32251;BME280;41295;48.518;9.206;2022-10-16T07:28:06;97269.88;;;15.47;85.25
32251;BME280;41295;48.518;9.206;2022-10-16T07:30:10;97276.84;;;15.48;85.23
32251;BME280;41295;48.518;9.206;2022-10-16T07:32:13;97279.28;;;15.51;85.97
32251;BME280;41295;48.518;9.206;2022-10-16T07:34:17;97278.28;;;15.54;86.62
32251;BME280;41295;48.518;9.206;2022-10-16T07:36:21;97278.78;;;15.61;86.05
32251;BME280;41295;48.518;9.206;2022-10-16T07:38:23;97287.56;;;15.60;85.44
32251;BME280;41295;48.518;9.206;2022-10-16T07:40:26;97291.81;;;15.62;85.24
32251;BME280;41295;48.518;9.206;2022-10-16T07:42:29;97297.06;;;15.62;84.80
32251;BME280;41295;48.518;9.206;2022-10-16T07:44:31;97298.09;;;15.60;83.91
32251;BME280;41295;48.518;9.206;2022-10-16T07:46:35;97305.72;;;15.65;84.27
32251;BME280;41295;48.518;9.206;2022-10-16T07:48:38;97316.06;;;15.68;84.09
32251;BME280;41295;48.518;9.206;2022-10-16T07:50:41;97317.47;;;15.73;84.18
32251;BME280;41295;48.518;9.206;2022-10-16T07:52:44;97315.53;;;15.77;84.31
32251;BME280;41295;48.518;9.206;2022-10-16T07:54:46;97309.97;;;15.82;83.97
32251;BME280;41295;48.518;9.206;2022-10-16T07:56:49;97313.28;;;15.85;83.82
32251;BME280;41295;48.518;9.206;2022-10-16T07:58:52;97306.81;;;15.91;84.40
32251;BME280;41295;48.518;9.206;2022-10-16T08:00:55;97316.13;;;15.97;85.07
32251;BME280;41295;48.518;9.206;2022-10-16T08:02:59;97322.91;;;16.01;85.58
32251;BME280;41295;48.518;9.206;2022-10-16T08:05:02;97323.69;;;16.03;85.47
32251;BME280;41295;48.518;9.206;2022-10-16T08:07:06;97328.03;;;16.04;85.20
32251;BME280;41295;48.518;9.206;2022-10-16T08:09:09;97328.75;;;16.06;84.84
32251;BME280;41295;48.518;9.206;2022-10-16T08:11:11;97334.00;;;16.06;84.31
32251;BME280;41295;48.518;9.206;2022-10-16T08:13:15;97333.00;;;16.09;83.88
32251;BME280;41295;48.518;9.206;2022-10-16T08:15:18;97331.88;;;16.13;84.32
32251;BME280;41295;48.518;9.206;2022-10-16T08:17:21;97314.19;;;16.15;84.21
32251;BME280;41295;48.518;9.206;2022-10-16T08:19:25;97310.56;;;16.18;84.55
32251;BME280;41295;48.518;9.206;2022-10-16T08:21:28;97319.97;;;16.22;84.82
32251;BME280;41295;48.518;9.206;2022-10-16T08:23:31;97327.84;;;16.22;83.83
32251;BME280;41295;48.518;9.206;2022-10-16T08:25:35;97339.13;;;16.24;82.85
32251;BME280;41295;48.518;9.206;2022-10-16T08:27:38;97343.25;;;16.28;82.37
32251;BME280;41295;48.518;9.206;2022-10-16T08:29:40;97338.66;;;16.32;81.94
32251;BME280;41295;48.518;9.206;2022-10-16T08:31:43;97333.88;;;16.39;82.02
32251;BME280;41295;48.518;9.206;2022-10-16T08:33:46;97339.69;;;16.44;81.66
32251;BME280;41295;48.518;9.206;2022-10-16T08:35:53;97348.19;;;16.49;81.70
32251;BME280;41295;48.518;9.206;2022-10-16T08:37:56;97347.13;;;16.52;81.78
32251;BME280;41295;48.518;9.206;2022-10-16T08:39:58;97343.56;;;16.53;81.98
32251;BME280;41295;48.518;9.206;2022-10-16T08:42:22;97346.84;;;16.56;82.20
32251;BME280;41295;48.518;9.206;2022-10-16T08:44:40;97344.97;;;16.58;81.96
32251;BME280;41295;48.518;9.206;2022-10-16T08:46:50;97349.31;;;16.59;81.11
32251;BME280;41295;48.518;9.206;2022-10-16T08:48:57;97355.31;;;16.62;80.83
32251;BME280;41295;48.518;9.206;2022-10-16T08:51:03;97355.13;;;16.65;80.31
32251;BME280;41295;48.518;9.206;2022-10-16T08:53:14;97356.63;;;16.69;79.85
32251;BME280;41295;48.518;9.206;2022-10-16T08:55:30;97357.28;;;16.73;79.76
32251;BME280;41295;48.518;9.206;2022-10-16T08:57:34;97358.88;;;16.75;79.63
32251;BME280;41295;48.518;9.206;2022-10-16T08:59:37;97354.94;;;16.82;78.73
32251;BME280;41295;48.518;9.206;2022-10-16T09:01:41;97357.38;;;16.86;78.84
32251;BME280;41295;48.518;9.206;2022-10-16T09:04:03;97359.72;;;16.90;78.93
32251;BME280;41295;48.518;9.206;2022-10-16T09:06:23;97361.31;;;16.93;79.24
32251;BME280;41295;48.518;9.206;2022-10-16T09:08:34;97368.09;;;16.97;79.40
32251;BME280;41295;48.518;9.206;2022-10-16T09:10:51;97373.06;;;17.02;78.70
32251;BME280;41295;48.518;9.206;2022-10-16T09:13:02;97374.69;;;17.04;78.21
32251;BME280;41295;48.518;9.206;2022-10-16T09:15:19;97373.63;;;17.07;78.18
32251;BME280;41295;48.518;9.206;2022-10-16T09:17:42;97380.97;;;17.16;76.63
32251;BME280;41295;48.518;9.206;2022-10-16T09:19:51;97378.63;;;17.12;76.60
32251;BME280;41295;48.518;9.206;2022-10-16T09:21:59;97382.88;;;17.14;76.74
32251;BME280;41295;48.518;9.206;2022-10-16T09:24:10;97389.75;;;17.17;76.87
32251;BME280;41295;48.518;9.206;2022-10-16T09:26:15;97388.03;;;17.16;76.84
32251;BME280;41295;48.518;9.206;2022-10-16T09:28:19;97385.59;;;17.13;77.05
32251;BME280;41295;48.518;9.206;2022-10-16T09:30:22;97377.69;;;17.13;77.27
32251;BME280;41295;48.518;9.206;2022-10-16T09:32:29;97386.25;;;17.16;77.56
32251;BME280;41295;48.518;9.206;2022-10-16T09:34:34;97390.47;;;17.19;78.12
32251;BME280;41295;48.518;9.206;2022-10-16T09:36:40;97385.03;;;17.22;78.46
32251;BME280;41295;48.518;9.206;2022-10-16T09:38:45;97386.59;;;17.25;78.30
32251;BME280;41295;48.518;9.206;2022-10-16T09:40:48;97382.94;;;17.27;78.76
32251;BME280;41295;48.518;9.206;2022-10-16T09:43:13;97383.59;;;17.31;79.05
32251;BME280;41295;48.518;9.206;2022-10-16T09:45:21;97386.88;;;17.35;79.20
32251;BME280;41295;48.518;9.206;2022-10-16T09:47:26;97385.81;;;17.37;79.05
32251;BME280;41295;48.518;9.206;2022-10-16T09:49:30;97382.34;;;17.37;79.53
32251;BME280;41295;48.518;9.206;2022-10-16T09:51:35;97384.97;;;17.37;79.72
32251;BME280;41295;48.518;9.206;2022-10-16T09:53:40;97388.56;;;17.36;79.95
32251;BME280;41295;48.518;9.206;2022-10-16T09:55:52;97388.47;;;17.37;80.54
32251;BME280;41295;48.518;9.206;2022-10-16T09:57:55;97384.03;;;17.38;80.38
32251;BME280;41295;48.518;9.206;2022-10-16T09:59:58;97387.69;;;17.35;80.25
32251;BME280;41295;48.518;9.206;2022-10-16T10:02:03;97390.25;;;17.37;80.04
32251;BME280;41295;48.518;9.206;2022-10-16T10:04:12;97385.81;;;17.37;79.91
32251;BME280;41295;48.518;9.206;2022-10-16T10:06:22;97393.72;;;17.37;79.63
32251;BME280;41295;48.518;9.206;2022-10-16T10:08:25;97389.22;;;17.39;79.56
32251;BME280;41295;48.518;9.206;2022-10-16T10:10:29;97388.34;;;17.39;78.94
32251;BME280;41295;48.518;9.206;2022-10-16T10:12:34;97385.72;;;17.39;78.40
32251;BME280;41295;48.518;9.206;2022-10-16T10:14:39;97395.44;;;17.38;78.21
32251;BME280;41295;48.518;9.206;2022-10-16T10:16:44;97393.84;;;17.36;78.39
32251;BME280;41295;48.518;9.206;2022-10-16T10:18:57;97399.97;;;17.36;78.50
32251;BME280;41295;48.518;9.206;2022-10-16T10:21:01;97384.91;;;17.38;78.26
32251;BME280;41295;48.518;9.206;2022-10-16T10:23:20;97396.81;;;17.44;78.37
32251;BME280;41295;48.518;9.206;2022-10-16T10:25:46;97394.00;;;17.47;78.16
32251;BME280;41295;48.518;9.206;2022-10-16T10:28:17;97383.91;;;17.54;77.66
32251;BME280;41295;48.518;9.206;2022-10-16T10:30:23;97381.81;;;17.59;76.91
32251;BME280;41295;48.518;9.206;2022-10-16T10:32:33;97378.75;;;17.65;75.75
32251;BME280;41295;48.518;9.206;2022-10-16T10:34:58;97379.22;;;17.72;75.15
32251;BME280;41295;48.518;9.206;2022-10-16T10:37:19;97371.97;;;17.76;73.64
32251;BME280;41295;48.518;9.206;2022-10-16T10:39:29;97377.78;;;17.81;73.47
32251;BME280;41295;48.518;9.206;2022-10-16T10:42:09;97378.97;;;17.90;73.58
32251;BME280;41295;48.518;9.206;2022-10-16T10:44:25;97377.28;;;18.02;71.02
32251;BME280;41295;48.518;9.206;2022-10-16T10:46:35;97385.31;;;18.54;70.78
32251;BME280;41295;48.518;9.206;2022-10-16T10:48:54;97382.97;;;18.23;70.71
32251;BME280;41295;48.518;9.206;2022-10-16T10:51:05;97384.44;;;18.27;68.63
32251;BME280;41295;48.518;9.206;2022-10-16T10:53:20;97378.84;;;18.32;66.90
32251;BME280;41295;48.518;9.206;2022-10-16T10:55:31;97376.53;;;18.27;66.90
32251;BME280;41295;48.518;9.206;2022-10-16T10:57:37;97381.06;;;18.51;63.02
32251;BME280;41295;48.518;9.206;2022-10-16T11:00:03;97375.06;;;18.75;63.28
32251;BME280;41295;48.518;9.206;2022-10-16T11:02:18;97379.25;;;18.91;63.53
32251;BME280;41295;48.518;9.206;2022-10-16T11:04:35;97385.19;;;18.82;62.86
32251;BME280;41295;48.518;9.206;2022-10-16T11:06:46;97386.13;;;18.81;61.33
32251;BME280;41295;48.518;9.206;2022-10-16T11:08:53;97384.63;;;19.16;60.51